createdAt,value
2017-06-11T00:00:25.043Z,947.0
2017-06-11T00:01:33.126Z,947.0
2017-06-11T00:02:41.212Z,947.0
2017-06-11T00:03:49.300Z,947.0
2017-06-11T00:04:57.579Z,947.0
2017-06-11T00:06:05.475Z,947.0
2017-06-11T00:07:13.566Z,947.0
2017-06-11T00:08:21.652Z,947.0
2017-06-11T00:09:29.740Z,947.0
2017-06-11T00:10:37.883Z,947.0
2017-06-11T00:11:45.914Z,947.1
2017-06-11T00:12:54.001Z,947.1
2017-06-11T00:14:02.087Z,947.0
2017-06-11T00:15:10.337Z,947.1
2017-06-11T00:16:18.382Z,947.0
2017-06-11T00:17:26.348Z,947.0
2017-06-11T00:18:34.434Z,947.0
2017-06-11T00:19:42.522Z,947.0
2017-06-11T00:20:50.617Z,947.0
2017-06-11T00:21:58.757Z,947.0
2017-06-11T00:23:06.781Z,947.0
2017-06-11T00:24:14.868Z,946.9
2017-06-11T00:25:22.953Z,946.9
2017-06-11T00:26:31.041Z,946.9
2017-06-11T00:27:39.255Z,946.9
2017-06-11T00:28:47.214Z,946.9
2017-06-11T00:29:55.301Z,946.9
2017-06-11T00:31:03.513Z,946.9
2017-06-11T00:32:11.574Z,946.9
2017-06-11T00:33:19.617Z,946.9
2017-06-11T00:34:27.652Z,946.9
2017-06-11T00:35:35.734Z,946.9
2017-06-11T00:36:43.824Z,946.9
2017-06-11T00:37:51.911Z,946.9
2017-06-11T00:39:00.145Z,946.8
2017-06-11T00:40:08.089Z,946.8
2017-06-11T00:41:16.175Z,946.8
2017-06-11T00:42:24.262Z,946.8
2017-06-11T00:43:32.347Z,946.8
2017-06-11T00:44:40.554Z,946.8
2017-06-11T00:45:48.521Z,946.7
2017-06-11T00:46:56.663Z,946.7
2017-06-11T00:48:04.699Z,946.8
2017-06-11T00:49:12.897Z,946.7
2017-06-11T00:50:20.997Z,946.7
2017-06-11T00:51:28.954Z,946.7
2017-06-11T00:52:37.041Z,946.7
2017-06-11T00:53:45.127Z,946.7
2017-06-11T00:54:53.214Z,946.7
2017-06-11T00:56:01.519Z,946.6
2017-06-11T00:57:09.393Z,946.7
2017-06-11T00:58:17.475Z,946.7
2017-06-11T00:59:25.563Z,946.7
2017-06-11T01:00:33.649Z,946.6
2017-06-11T01:01:41.796Z,946.6
2017-06-11T01:02:49.942Z,946.6
2017-06-11T01:03:57.911Z,946.6
2017-06-11T01:05:05.997Z,946.6
2017-06-11T01:06:14.168Z,946.6
2017-06-11T01:07:22.292Z,946.6
2017-06-11T01:08:30.258Z,946.6
2017-06-11T01:09:38.346Z,946.6
2017-06-11T01:10:46.433Z,946.6
2017-06-11T01:11:54.589Z,946.6
2017-06-11T01:13:02.748Z,946.6
2017-06-11T01:14:10.692Z,946.6
2017-06-11T01:15:18.776Z,946.6
2017-06-11T01:16:26.867Z,946.6
2017-06-11T01:17:34.954Z,946.5
2017-06-11T01:18:43.160Z,946.5
2017-06-11T01:19:51.126Z,946.5
2017-06-11T01:20:59.214Z,946.6
2017-06-11T01:22:07.305Z,946.5
2017-06-11T01:23:15.527Z,946.5
2017-06-11T01:24:23.592Z,946.6
2017-06-11T01:25:31.565Z,946.5
2017-06-11T01:26:39.651Z,946.5
2017-06-11T01:27:47.744Z,946.5
2017-06-11T01:28:55.843Z,946.5
2017-06-11T01:30:04.042Z,946.5
2017-06-11T01:31:12.019Z,946.5
2017-06-11T01:32:20.092Z,946.5
2017-06-11T01:33:28.272Z,946.5
2017-06-11T01:34:36.520Z,946.5
2017-06-11T01:35:44.477Z,946.5
2017-06-11T01:36:52.440Z,946.6
2017-06-11T01:38:00.526Z,946.5
2017-06-11T01:39:08.615Z,946.5
2017-06-11T01:40:16.760Z,946.5
2017-06-11T01:41:24.906Z,946.5
2017-06-11T01:42:32.877Z,946.5
2017-06-11T01:43:40.959Z,946.5
2017-06-11T01:44:49.046Z,946.5
2017-06-11T01:45:57.134Z,946.5
2017-06-11T01:47:05.341Z,946.5
2017-06-11T01:48:13.309Z,946.5
2017-06-11T01:49:21.402Z,946.5
2017-06-11T01:50:29.704Z,946.5
2017-06-11T01:51:37.745Z,946.5
2017-06-11T01:52:45.788Z,946.5
2017-06-11T01:53:53.752Z,946.5
2017-06-11T01:55:01.845Z,946.5
2017-06-11T01:56:09.928Z,946.4
2017-06-11T01:57:18.118Z,946.5
2017-06-11T01:58:26.223Z,946.4
2017-06-11T01:59:34.193Z,946.5
2017-06-11T02:00:42.275Z,946.5
2017-06-11T02:01:50.362Z,946.5
2017-06-11T02:02:58.454Z,946.5
2017-06-11T02:04:06.593Z,946.5
2017-06-11T02:05:14.622Z,946.5
2017-06-11T02:06:22.829Z,946.4
2017-06-11T02:07:30.796Z,946.4
2017-06-11T02:08:38.881Z,946.4
2017-06-11T02:09:47.088Z,946.4
2017-06-11T02:10:55.054Z,946.4
2017-06-11T02:12:03.143Z,946.5
2017-06-11T02:13:11.233Z,946.4
2017-06-11T02:14:19.445Z,946.4
2017-06-11T02:15:27.462Z,946.4
2017-06-11T02:16:35.501Z,946.4
2017-06-11T02:17:43.589Z,946.4
2017-06-11T02:18:51.672Z,946.4
2017-06-11T02:19:59.767Z,946.4
2017-06-11T02:21:07.974Z,946.4
2017-06-11T02:22:16.062Z,946.4
2017-06-11T02:23:24.028Z,946.4
2017-06-11T02:24:32.189Z,946.4
2017-06-11T02:25:40.284Z,946.4
2017-06-11T02:26:48.345Z,946.4
2017-06-11T02:27:56.374Z,946.4
2017-06-11T02:29:04.470Z,946.3
2017-06-11T02:30:12.555Z,946.4
2017-06-11T02:31:20.822Z,946.3
2017-06-11T02:32:28.855Z,946.3
2017-06-11T02:33:36.824Z,946.3
2017-06-11T02:34:44.912Z,946.3
2017-06-11T02:35:52.996Z,946.3
2017-06-11T02:37:01.085Z,946.3
2017-06-11T02:38:09.293Z,946.3
2017-06-11T02:39:17.257Z,946.3
2017-06-11T02:40:25.344Z,946.3
2017-06-11T02:41:33.599Z,946.3
2017-06-11T02:42:41.689Z,946.3
2017-06-11T02:43:49.727Z,946.2
2017-06-11T02:44:57.691Z,946.2
2017-06-11T02:46:05.778Z,946.2
2017-06-11T02:47:13.865Z,946.2
2017-06-11T02:48:21.989Z,946.1
2017-06-11T02:49:30.099Z,946.1
2017-06-11T02:50:38.124Z,946.1
2017-06-11T02:51:46.209Z,946.1
2017-06-11T02:52:54.298Z,946.1
2017-06-11T02:54:02.509Z,946.1
2017-06-11T02:55:10.595Z,946.0
2017-06-11T02:56:18.560Z,946.0
2017-06-11T02:57:26.647Z,946.0
2017-06-11T02:58:34.917Z,946.0
2017-06-11T02:59:43.005Z,946.0
2017-06-11T03:00:50.959Z,946.0
2017-06-11T03:01:58.995Z,946.0
2017-06-11T03:03:07.083Z,946.0
2017-06-11T03:04:15.171Z,946.0
2017-06-11T03:05:23.257Z,946.0
2017-06-11T03:06:31.465Z,946.0
2017-06-11T03:07:39.428Z,946.0
2017-06-11T03:08:47.514Z,946.0
2017-06-11T03:09:55.721Z,946.0
2017-06-11T03:11:03.690Z,945.9
2017-06-11T03:12:11.833Z,946.0
2017-06-11T03:13:19.864Z,945.9
2017-06-11T03:14:27.951Z,946.0
2017-06-11T03:15:36.201Z,945.9
2017-06-11T03:16:44.187Z,945.9
2017-06-11T03:17:52.330Z,946.0
2017-06-11T03:19:00.295Z,946.0
2017-06-11T03:20:08.382Z,945.9
2017-06-11T03:21:16.470Z,945.9
2017-06-11T03:22:24.655Z,945.9
2017-06-11T03:23:32.767Z,945.9
2017-06-11T03:24:40.731Z,945.9
2017-06-11T03:25:48.874Z,945.9
2017-06-11T03:26:56.902Z,945.9
2017-06-11T03:28:05.018Z,945.9
2017-06-11T03:29:13.229Z,945.9
2017-06-11T03:30:21.161Z,945.9
2017-06-11T03:31:29.247Z,945.8
2017-06-11T03:32:37.342Z,945.8
2017-06-11T03:33:45.426Z,945.9
2017-06-11T03:34:53.570Z,945.9
2017-06-11T03:36:01.601Z,945.9
2017-06-11T03:37:09.690Z,945.9
2017-06-11T03:38:17.780Z,946.0
2017-06-11T03:39:26.019Z,946.0
2017-06-11T03:40:34.071Z,946.0
2017-06-11T03:41:42.159Z,946.0
2017-06-11T03:42:50.127Z,946.0
2017-06-11T03:43:58.212Z,946.0
2017-06-11T03:45:06.308Z,946.0
2017-06-11T03:46:14.493Z,946.0
2017-06-11T03:47:22.481Z,946.0
2017-06-11T03:48:30.568Z,946.0
2017-06-11T03:49:38.654Z,945.9
2017-06-11T03:50:46.740Z,946.0
2017-06-11T03:51:54.883Z,945.9
2017-06-11T03:53:02.913Z,946.0
2017-06-11T03:54:10.998Z,946.0
2017-06-11T03:55:19.090Z,946.0
2017-06-11T03:56:27.251Z,946.0
2017-06-11T03:57:35.379Z,946.0
2017-06-11T03:58:43.367Z,946.0
2017-06-11T03:59:51.432Z,945.9
2017-06-11T04:00:59.521Z,945.9
2017-06-11T04:02:07.660Z,946.0
2017-06-11T04:03:15.874Z,945.9
2017-06-11T04:04:23.779Z,946.0
2017-06-11T04:05:31.867Z,945.9
2017-06-11T04:06:39.955Z,945.9
2017-06-11T04:07:48.045Z,946.0
2017-06-11T04:08:56.188Z,945.9
2017-06-11T04:10:04.227Z,946.0
2017-06-11T04:11:12.314Z,945.9
2017-06-11T04:12:20.402Z,945.9
2017-06-11T04:13:28.737Z,945.9
2017-06-11T04:14:36.697Z,945.9
2017-06-11T04:15:44.661Z,945.9
2017-06-11T04:16:52.748Z,945.9
2017-06-11T04:18:00.834Z,946.0
2017-06-11T04:19:08.953Z,945.9
2017-06-11T04:20:17.092Z,945.9
2017-06-11T04:21:25.095Z,945.9
2017-06-11T04:22:33.181Z,945.9
2017-06-11T04:23:41.267Z,945.9
2017-06-11T04:24:49.354Z,946.0
2017-06-11T04:25:57.561Z,945.9
2017-06-11T04:27:05.528Z,946.0
2017-06-11T04:28:13.614Z,946.0
2017-06-11T04:29:21.823Z,946.0
2017-06-11T04:30:29.978Z,946.0
2017-06-11T04:31:37.926Z,946.0
2017-06-11T04:32:45.966Z,946.0
2017-06-11T04:33:54.061Z,946.0
2017-06-11T04:35:02.132Z,946.0
2017-06-11T04:36:10.223Z,946.0
2017-06-11T04:37:18.573Z,946.0
2017-06-11T04:38:26.392Z,946.0
2017-06-11T04:39:34.478Z,946.0
2017-06-11T04:40:42.567Z,946.0
2017-06-11T04:41:50.648Z,946.0
2017-06-11T04:42:58.947Z,946.0
2017-06-11T04:44:06.822Z,946.0
2017-06-11T04:45:14.965Z,946.0
2017-06-11T04:46:22.996Z,946.1
2017-06-11T04:47:31.083Z,946.0
2017-06-11T04:48:39.291Z,946.0
2017-06-11T04:49:47.255Z,946.1
2017-06-11T04:50:55.342Z,946.0
2017-06-11T04:52:03.430Z,946.0
2017-06-11T04:53:11.702Z,946.0
2017-06-11T04:54:19.906Z,946.0
2017-06-11T04:55:27.688Z,946.0
2017-06-11T04:56:35.776Z,946.0
2017-06-11T04:57:43.870Z,946.0
2017-06-11T04:58:51.954Z,946.0
2017-06-11T05:00:00.221Z,946.0
2017-06-11T05:01:08.248Z,945.9
2017-06-11T05:02:16.215Z,946.0
2017-06-11T05:03:24.303Z,946.0
2017-06-11T05:04:32.387Z,946.0
2017-06-11T05:05:40.537Z,946.0
2017-06-11T05:06:48.565Z,946.0
2017-06-11T05:07:56.647Z,946.0
2017-06-11T05:09:04.732Z,946.0
2017-06-11T05:10:12.964Z,946.0
2017-06-11T05:11:21.178Z,946.0
2017-06-11T05:12:28.992Z,946.0
2017-06-11T05:13:37.080Z,946.0
2017-06-11T05:14:45.170Z,946.0
2017-06-11T05:15:53.252Z,946.0
2017-06-11T05:17:01.460Z,946.0
2017-06-11T05:18:09.428Z,946.0
2017-06-11T05:19:17.510Z,946.0
2017-06-11T05:20:25.603Z,946.0
2017-06-11T05:21:33.682Z,945.9
2017-06-11T05:22:41.890Z,945.9
2017-06-11T05:23:49.855Z,945.9
2017-06-11T05:24:57.944Z,945.8
2017-06-11T05:26:06.028Z,945.8
2017-06-11T05:27:14.150Z,945.8
2017-06-11T05:28:22.380Z,945.8
2017-06-11T05:29:30.290Z,945.8
2017-06-11T05:30:38.374Z,945.8
2017-06-11T05:31:46.461Z,945.8
2017-06-11T05:32:54.669Z,945.8
2017-06-11T05:34:02.857Z,945.8
2017-06-11T05:35:10.721Z,945.8
2017-06-11T05:36:18.808Z,945.7
2017-06-11T05:37:26.898Z,945.7
2017-06-11T05:38:34.983Z,945.8
2017-06-11T05:39:43.193Z,945.7
2017-06-11T05:40:51.161Z,945.7
2017-06-11T05:41:59.247Z,945.7
2017-06-11T05:43:07.342Z,945.7
2017-06-11T05:44:15.588Z,945.7
2017-06-11T05:45:23.798Z,945.8
2017-06-11T05:46:31.595Z,945.7
2017-06-11T05:47:39.680Z,945.7
2017-06-11T05:48:47.889Z,945.7
2017-06-11T05:49:55.856Z,945.7
2017-06-11T05:51:04.039Z,945.7
2017-06-11T05:52:12.030Z,945.7
2017-06-11T05:53:20.116Z,945.7
2017-06-11T05:54:28.203Z,945.7
2017-06-11T05:55:36.289Z,945.7
2017-06-11T05:56:44.503Z,945.7
2017-06-11T05:57:52.472Z,945.7
2017-06-11T05:59:00.561Z,945.8
2017-06-11T06:00:08.648Z,945.7
2017-06-11T06:01:16.826Z,945.7
2017-06-11T06:02:25.036Z,945.7
2017-06-11T06:03:32.906Z,945.7
2017-06-11T06:04:41.120Z,945.7
2017-06-11T06:05:49.081Z,945.7
2017-06-11T06:06:57.166Z,945.7
2017-06-11T06:08:05.310Z,945.7
2017-06-11T06:09:13.339Z,945.7
2017-06-11T06:10:21.427Z,945.7
2017-06-11T06:11:29.514Z,945.6
2017-06-11T06:12:37.778Z,945.7
2017-06-11T06:13:45.804Z,945.7
2017-06-11T06:14:53.771Z,945.7
2017-06-11T06:16:01.859Z,945.7
2017-06-11T06:17:09.947Z,945.8
2017-06-11T06:18:18.073Z,945.8
2017-06-11T06:19:26.239Z,945.8
2017-06-11T06:20:34.262Z,945.8
2017-06-11T06:21:42.291Z,945.8
2017-06-11T06:22:50.375Z,945.8
2017-06-11T06:23:58.463Z,945.8
2017-06-11T06:25:06.675Z,945.8
2017-06-11T06:26:14.636Z,945.7
2017-06-11T06:27:22.723Z,945.8
2017-06-11T06:28:30.810Z,945.8
2017-06-11T06:29:39.061Z,945.8
2017-06-11T06:30:47.102Z,945.8
2017-06-11T06:31:55.067Z,945.8
2017-06-11T06:33:03.153Z,945.8
2017-06-11T06:34:11.241Z,945.8
2017-06-11T06:35:19.415Z,945.9
2017-06-11T06:36:27.618Z,945.8
2017-06-11T06:37:35.499Z,945.8
2017-06-11T06:38:43.587Z,945.8
2017-06-11T06:39:51.682Z,945.8
2017-06-11T06:40:59.760Z,945.8
2017-06-11T06:42:07.968Z,945.7
2017-06-11T06:43:15.933Z,945.8
2017-06-11T06:44:24.017Z,945.8
2017-06-11T06:45:32.105Z,945.7
2017-06-11T06:46:40.265Z,945.7
2017-06-11T06:47:48.399Z,945.7
2017-06-11T06:48:56.364Z,945.8
2017-06-11T06:50:04.452Z,945.7
2017-06-11T06:51:12.538Z,945.7
2017-06-11T06:52:20.806Z,945.8
2017-06-11T06:53:28.831Z,945.7
2017-06-11T06:54:36.799Z,945.8
2017-06-11T06:55:44.885Z,945.8
2017-06-11T06:56:52.971Z,945.7
2017-06-11T06:58:01.060Z,945.8
2017-06-11T06:59:09.265Z,945.7
2017-06-11T07:00:17.235Z,945.8
2017-06-11T07:01:25.324Z,945.7
2017-06-11T07:02:33.405Z,945.7
2017-06-11T07:03:41.653Z,945.7
2017-06-11T07:04:49.635Z,945.7
2017-06-11T07:05:57.664Z,945.8
2017-06-11T07:07:05.751Z,945.7
2017-06-11T07:08:13.958Z,945.7
2017-06-11T07:09:21.973Z,945.7
2017-06-11T07:10:30.186Z,945.8
2017-06-11T07:11:38.096Z,945.7
2017-06-11T07:12:46.183Z,945.7
2017-06-11T07:13:54.271Z,945.7
2017-06-11T07:15:02.356Z,945.7
2017-06-11T07:16:10.562Z,945.7
2017-06-11T07:17:18.536Z,945.7
2017-06-11T07:18:26.617Z,945.7
2017-06-11T07:19:34.709Z,945.7
2017-06-11T07:20:42.921Z,945.7
2017-06-11T07:21:51.000Z,945.7
2017-06-11T07:22:58.985Z,945.7
2017-06-11T07:24:07.172Z,945.7
2017-06-11T07:25:15.139Z,945.7
2017-06-11T07:26:23.227Z,945.7
2017-06-11T07:27:31.434Z,945.7
2017-06-11T07:28:39.400Z,945.7
2017-06-11T07:29:47.487Z,945.7
2017-06-11T07:30:55.673Z,945.7
2017-06-11T07:32:03.661Z,945.7
2017-06-11T07:33:11.868Z,945.7
2017-06-11T07:34:19.831Z,945.7
2017-06-11T07:35:27.920Z,945.7
2017-06-11T07:36:36.006Z,945.7
2017-06-11T07:37:44.112Z,945.6
2017-06-11T07:38:52.300Z,945.6
2017-06-11T07:40:00.647Z,945.6
2017-06-11T07:41:08.351Z,945.6
2017-06-11T07:42:16.437Z,945.6
2017-06-11T07:43:24.525Z,945.6
2017-06-11T07:44:32.748Z,945.6
2017-06-11T07:45:40.699Z,945.6
2017-06-11T07:46:48.785Z,945.6
2017-06-11T07:47:56.876Z,945.6
2017-06-11T07:49:04.961Z,945.6
2017-06-11T07:50:13.166Z,945.5
2017-06-11T07:51:21.158Z,945.6
2017-06-11T07:52:29.219Z,945.6
2017-06-11T07:53:37.306Z,945.6
2017-06-11T07:54:45.499Z,945.6
2017-06-11T07:55:53.601Z,945.6
2017-06-11T07:57:01.575Z,945.6
2017-06-11T07:58:09.658Z,945.6
2017-06-11T07:59:17.741Z,945.5
2017-06-11T08:00:25.828Z,945.5
2017-06-11T08:01:34.034Z,945.5
2017-06-11T08:02:42.004Z,945.5
2017-06-11T08:03:50.091Z,945.5
2017-06-11T08:04:58.237Z,945.5
2017-06-11T08:06:06.430Z,945.5
2017-06-11T08:07:14.408Z,945.5
2017-06-11T08:08:22.437Z,945.5
2017-06-11T08:09:30.523Z,945.5
2017-06-11T08:10:38.607Z,945.5
2017-06-11T08:11:46.879Z,945.5
2017-06-11T08:12:54.905Z,945.5
2017-06-11T08:14:02.871Z,945.5
2017-06-11T08:15:10.960Z,945.5
2017-06-11T08:16:19.046Z,945.4
2017-06-11T08:17:27.135Z,945.4
2017-06-11T08:18:35.342Z,945.4
2017-06-11T08:19:43.312Z,945.4
2017-06-11T08:20:51.394Z,945.4
2017-06-11T08:21:59.609Z,945.4
2017-06-11T08:23:07.725Z,945.4
2017-06-11T08:24:15.781Z,945.4
2017-06-11T08:25:23.742Z,945.4
2017-06-11T08:26:31.831Z,945.4
2017-06-11T08:27:40.040Z,945.4
2017-06-11T08:28:48.037Z,945.4
2017-06-11T08:29:56.212Z,945.4
2017-06-11T08:31:04.179Z,945.4
2017-06-11T08:32:12.267Z,945.4
2017-06-11T08:33:20.354Z,945.4
2017-06-11T08:34:28.441Z,945.4
2017-06-11T08:35:36.585Z,945.4
2017-06-11T08:36:44.650Z,945.4
2017-06-11T08:37:52.705Z,945.4
2017-06-11T08:39:00.931Z,945.4
2017-06-11T08:40:09.018Z,945.4
2017-06-11T08:41:17.084Z,945.4
2017-06-11T08:42:25.063Z,945.3
2017-06-11T08:43:33.259Z,945.3
2017-06-11T08:44:41.227Z,945.3
2017-06-11T08:45:49.313Z,945.3
2017-06-11T08:46:57.459Z,945.3
2017-06-11T08:48:05.488Z,945.3
2017-06-11T08:49:13.578Z,945.3
2017-06-11T08:50:21.662Z,945.3
2017-06-11T08:51:29.748Z,945.3
2017-06-11T08:52:37.956Z,945.3
2017-06-11T08:53:45.922Z,945.3
2017-06-11T08:54:54.010Z,945.2
2017-06-11T08:56:02.098Z,945.2
2017-06-11T08:57:10.183Z,945.2
2017-06-11T08:58:18.343Z,945.2
2017-06-11T08:59:26.414Z,945.2
2017-06-11T09:00:34.446Z,945.2
2017-06-11T09:01:42.533Z,945.2
2017-06-11T09:02:50.618Z,945.2
2017-06-11T09:03:58.828Z,945.2
2017-06-11T09:05:06.803Z,945.2
2017-06-11T09:06:14.883Z,945.2
2017-06-11T09:07:23.130Z,945.2
2017-06-11T09:08:31.056Z,945.2
2017-06-11T09:09:39.264Z,945.2
2017-06-11T09:10:47.230Z,945.2
2017-06-11T09:11:55.318Z,945.2
2017-06-11T09:13:03.474Z,945.1
2017-06-11T09:14:11.561Z,945.1
2017-06-11T09:15:19.639Z,945.1
2017-06-11T09:16:27.667Z,945.2
2017-06-11T09:17:35.754Z,945.2
2017-06-11T09:18:43.840Z,945.2
2017-06-11T09:19:51.927Z,945.1
2017-06-11T09:21:00.133Z,945.1
2017-06-11T09:22:08.117Z,945.1
2017-06-11T09:23:16.191Z,945.1
2017-06-11T09:24:24.395Z,945.1
2017-06-11T09:25:32.364Z,945.1
2017-06-11T09:26:40.510Z,945.0
2017-06-11T09:27:48.541Z,945.0
2017-06-11T09:28:56.627Z,945.0
2017-06-11T09:30:04.721Z,945.0
2017-06-11T09:31:12.940Z,945.0
2017-06-11T09:32:21.020Z,945.0
2017-06-11T09:33:28.985Z,945.0
2017-06-11T09:34:37.072Z,945.0
2017-06-11T09:35:45.161Z,944.9
2017-06-11T09:36:53.248Z,945.0
2017-06-11T09:38:01.463Z,944.9
2017-06-11T09:39:09.429Z,944.9
2017-06-11T09:40:17.517Z,944.9
2017-06-11T09:41:25.788Z,944.9
2017-06-11T09:42:33.698Z,944.9
2017-06-11T09:43:41.906Z,944.8
2017-06-11T09:44:49.866Z,944.9
2017-06-11T09:45:57.956Z,944.8
2017-06-11T09:47:06.226Z,944.8
2017-06-11T09:48:14.130Z,944.8
2017-06-11T09:49:22.340Z,944.8
2017-06-11T09:50:30.306Z,944.8
2017-06-11T09:51:38.396Z,944.7
2017-06-11T09:52:46.481Z,944.7
2017-06-11T09:53:54.569Z,944.7
2017-06-11T09:55:02.713Z,944.7
2017-06-11T09:56:10.741Z,944.7
2017-06-11T09:57:18.832Z,944.7
2017-06-11T09:58:27.061Z,944.7
2017-06-11T09:59:35.005Z,944.7
2017-06-11T10:00:43.212Z,944.7
2017-06-11T10:01:51.179Z,944.8
2017-06-11T10:02:59.390Z,944.8
2017-06-11T10:04:07.397Z,944.8
2017-06-11T10:05:15.476Z,944.8
2017-06-11T10:06:23.586Z,944.7
2017-06-11T10:07:31.620Z,944.7
2017-06-11T10:08:39.705Z,944.7
2017-06-11T10:09:47.795Z,944.7
2017-06-11T10:10:55.882Z,944.6
2017-06-11T10:12:04.098Z,944.7
2017-06-11T10:13:12.057Z,944.7
2017-06-11T10:14:20.146Z,944.7
2017-06-11T10:15:28.266Z,944.7
2017-06-11T10:16:36.319Z,944.7
2017-06-11T10:17:44.528Z,944.6
2017-06-11T10:18:52.550Z,944.6
2017-06-11T10:20:00.824Z,944.6
2017-06-11T10:21:08.698Z,944.6
2017-06-11T10:22:16.790Z,944.6
2017-06-11T10:23:24.901Z,944.6
2017-06-11T10:24:32.935Z,944.6
2017-06-11T10:25:41.022Z,944.5
2017-06-11T10:26:49.111Z,944.5
2017-06-11T10:27:57.197Z,944.6
2017-06-11T10:29:05.405Z,944.5
2017-06-11T10:30:13.373Z,944.5
2017-06-11T10:31:21.463Z,944.6
2017-06-11T10:32:29.649Z,944.5
2017-06-11T10:33:37.641Z,944.5
2017-06-11T10:34:45.849Z,944.5
2017-06-11T10:35:53.815Z,944.5
2017-06-11T10:37:01.903Z,944.5
2017-06-11T10:38:09.992Z,944.5
2017-06-11T10:39:18.082Z,944.4
2017-06-11T10:40:26.292Z,944.5
2017-06-11T10:41:34.260Z,944.5
2017-06-11T10:42:42.494Z,944.4
2017-06-11T10:43:50.601Z,944.4
2017-06-11T10:44:58.527Z,944.4
2017-06-11T10:46:06.736Z,944.5
2017-06-11T10:47:14.701Z,944.4
2017-06-11T10:48:22.798Z,944.4
2017-06-11T10:49:30.962Z,944.4
2017-06-11T10:50:39.087Z,944.4
2017-06-11T10:51:47.173Z,944.4
2017-06-11T10:52:55.142Z,944.3
2017-06-11T10:54:03.227Z,944.3
2017-06-11T10:55:11.316Z,944.3
2017-06-11T10:56:19.405Z,944.3
2017-06-11T10:57:27.618Z,944.3
2017-06-11T10:58:35.579Z,944.3
2017-06-11T10:59:43.843Z,944.3
2017-06-11T11:00:51.938Z,944.3
2017-06-11T11:01:59.844Z,944.3
2017-06-11T11:03:08.051Z,944.3
2017-06-11T11:04:16.020Z,944.3
2017-06-11T11:05:24.108Z,944.3
2017-06-11T11:06:32.317Z,944.3
2017-06-11T11:07:40.285Z,944.3
2017-06-11T11:08:48.495Z,944.2
2017-06-11T11:09:56.462Z,944.3
2017-06-11T11:11:04.548Z,944.2
2017-06-11T11:12:12.637Z,944.2
2017-06-11T11:13:20.725Z,944.1
2017-06-11T11:14:28.932Z,944.2
2017-06-11T11:15:36.900Z,944.2
2017-06-11T11:16:45.106Z,944.2
2017-06-11T11:17:53.193Z,944.1
2017-06-11T11:19:01.165Z,944.1
2017-06-11T11:20:09.372Z,944.1
2017-06-11T11:21:17.343Z,944.1
2017-06-11T11:22:25.548Z,944.1
2017-06-11T11:23:33.541Z,944.1
2017-06-11T11:24:41.603Z,944.1
2017-06-11T11:25:49.747Z,944.1
2017-06-11T11:26:57.782Z,944.1
2017-06-11T11:28:05.867Z,944.1
2017-06-11T11:29:13.955Z,944.0
2017-06-11T11:30:22.044Z,944.0
2017-06-11T11:31:30.252Z,944.0
2017-06-11T11:32:38.219Z,944.0
2017-06-11T11:33:46.458Z,944.0
2017-06-11T11:34:54.533Z,944.0
2017-06-11T11:36:02.483Z,944.0
2017-06-11T11:37:10.692Z,944.0
2017-06-11T11:38:18.782Z,944.0
2017-06-11T11:39:26.748Z,944.0
2017-06-11T11:40:34.913Z,943.9
2017-06-11T11:41:42.925Z,943.9
2017-06-11T11:42:51.082Z,943.9
2017-06-11T11:43:59.099Z,943.9
2017-06-11T11:45:07.188Z,943.9
2017-06-11T11:46:15.276Z,943.8
2017-06-11T11:47:23.362Z,943.8
2017-06-11T11:48:31.574Z,943.8
2017-06-11T11:49:39.542Z,943.8
2017-06-11T11:50:47.790Z,943.8
2017-06-11T11:51:55.875Z,943.8
2017-06-11T11:53:03.807Z,943.8
2017-06-11T11:54:12.014Z,943.8
2017-06-11T11:55:19.984Z,943.8
2017-06-11T11:56:28.071Z,943.8
2017-06-11T11:57:36.159Z,943.7
2017-06-11T11:58:44.248Z,943.7
2017-06-11T11:59:52.457Z,943.7
2017-06-11T12:01:00.423Z,943.7
2017-06-11T12:02:08.512Z,943.7
2017-06-11T12:03:16.605Z,943.7
2017-06-11T12:04:24.693Z,943.7
2017-06-11T12:05:32.902Z,943.7
2017-06-11T12:06:40.871Z,943.7
2017-06-11T12:07:49.047Z,943.7
2017-06-11T12:08:57.130Z,943.7
2017-06-11T12:10:05.189Z,943.6
2017-06-11T12:11:13.342Z,943.6
2017-06-11T12:12:21.310Z,943.6
2017-06-11T12:13:29.398Z,943.7
2017-06-11T12:14:37.487Z,943.7
2017-06-11T12:15:45.574Z,943.6
2017-06-11T12:16:53.784Z,943.6
2017-06-11T12:18:01.757Z,943.6
2017-06-11T12:19:10.002Z,943.5
2017-06-11T12:20:17.933Z,943.6
2017-06-11T12:21:26.019Z,943.5
2017-06-11T12:22:34.165Z,943.5
2017-06-11T12:23:42.197Z,943.5
2017-06-11T12:24:50.286Z,943.5
2017-06-11T12:25:58.555Z,943.5
2017-06-11T12:27:06.463Z,943.4
2017-06-11T12:28:14.677Z,943.5
2017-06-11T12:29:22.641Z,943.5
2017-06-11T12:30:30.729Z,943.4
2017-06-11T12:31:38.821Z,943.4
2017-06-11T12:32:46.907Z,943.4
2017-06-11T12:33:55.118Z,943.4
2017-06-11T12:35:03.086Z,943.3
2017-06-11T12:36:11.172Z,943.3
2017-06-11T12:37:19.260Z,943.3
2017-06-11T12:38:27.358Z,943.3
2017-06-11T12:39:35.565Z,943.3
2017-06-11T12:40:43.530Z,943.2
2017-06-11T12:41:51.863Z,943.2
2017-06-11T12:42:59.834Z,943.2
2017-06-11T12:44:07.800Z,943.2
2017-06-11T12:45:16.009Z,943.2
2017-06-11T12:46:23.974Z,943.2
2017-06-11T12:47:32.062Z,943.2
2017-06-11T12:48:40.150Z,943.2
2017-06-11T12:49:48.240Z,943.2
2017-06-11T12:50:56.447Z,943.1
2017-06-11T12:52:04.417Z,943.1
2017-06-11T12:53:12.671Z,943.1
2017-06-11T12:54:20.593Z,943.1
2017-06-11T12:55:28.685Z,943.1
2017-06-11T12:56:36.895Z,943.1
2017-06-11T12:57:44.977Z,943.1
2017-06-11T12:58:52.990Z,943.1
2017-06-11T13:00:01.077Z,943.1
2017-06-11T13:01:09.134Z,943.1
2017-06-11T13:02:17.331Z,943.0
2017-06-11T13:03:25.301Z,943.0
2017-06-11T13:04:33.391Z,943.0
2017-06-11T13:05:41.479Z,943.0
2017-06-11T13:06:49.570Z,943.0
2017-06-11T13:07:57.780Z,943.0
2017-06-11T13:09:05.749Z,942.9
2017-06-11T13:10:13.987Z,943.0
2017-06-11T13:11:21.927Z,942.9
2017-06-11T13:12:30.015Z,943.0
2017-06-11T13:13:38.224Z,943.0
2017-06-11T13:14:46.194Z,943.0
2017-06-11T13:15:54.279Z,943.0
2017-06-11T13:17:02.441Z,942.9
2017-06-11T13:18:10.456Z,942.9
2017-06-11T13:19:18.603Z,942.9
2017-06-11T13:20:26.639Z,942.9
2017-06-11T13:21:34.723Z,942.9
2017-06-11T13:22:42.812Z,942.9
2017-06-11T13:23:50.898Z,942.9
2017-06-11T13:24:59.108Z,942.8
2017-06-11T13:26:07.079Z,942.8
2017-06-11T13:27:15.242Z,942.8
2017-06-11T13:28:23.256Z,942.9
2017-06-11T13:29:31.464Z,942.9
2017-06-11T13:30:39.493Z,942.8
2017-06-11T13:31:47.526Z,942.8
2017-06-11T13:32:55.665Z,942.8
2017-06-11T13:34:03.764Z,942.8
2017-06-11T13:35:11.791Z,942.8
2017-06-11T13:36:20.000Z,942.8
2017-06-11T13:37:27.974Z,942.8
2017-06-11T13:38:36.062Z,942.7
2017-06-11T13:39:44.151Z,942.8
2017-06-11T13:40:52.239Z,942.8
2017-06-11T13:42:00.448Z,942.7
2017-06-11T13:43:08.422Z,942.7
2017-06-11T13:44:16.611Z,942.7
2017-06-11T13:45:24.713Z,942.7
2017-06-11T13:46:32.681Z,942.7
2017-06-11T13:47:40.828Z,942.7
2017-06-11T13:48:48.859Z,942.7
2017-06-11T13:49:56.949Z,942.7
2017-06-11T13:51:05.042Z,942.7
2017-06-11T13:52:13.131Z,942.7
2017-06-11T13:53:21.331Z,942.7
2017-06-11T13:54:29.302Z,942.7
2017-06-11T13:55:37.551Z,942.7
2017-06-11T13:56:45.478Z,942.7
2017-06-11T13:57:53.570Z,942.7
2017-06-11T13:59:01.776Z,942.6
2017-06-11T14:00:09.747Z,942.7
2017-06-11T14:01:18.016Z,942.6
2017-06-11T14:02:25.923Z,942.6
2017-06-11T14:03:34.011Z,942.6
2017-06-11T14:04:42.157Z,942.6
2017-06-11T14:05:50.186Z,942.6
2017-06-11T14:06:58.283Z,942.6
2017-06-11T14:08:06.372Z,942.5
2017-06-11T14:09:14.462Z,942.5
2017-06-11T14:10:22.679Z,942.5
2017-06-11T14:11:30.654Z,942.5
2017-06-11T14:12:38.863Z,942.5
2017-06-11T14:13:46.832Z,942.5
2017-06-11T14:14:54.924Z,942.5
2017-06-11T14:16:03.131Z,942.5
2017-06-11T14:17:11.218Z,942.5
2017-06-11T14:18:19.200Z,942.4
2017-06-11T14:19:27.289Z,942.4
2017-06-11T14:20:35.377Z,942.4
2017-06-11T14:21:43.523Z,942.3
2017-06-11T14:22:51.713Z,942.3
2017-06-11T14:23:59.643Z,942.3
2017-06-11T14:25:07.817Z,942.3
2017-06-11T14:26:15.820Z,942.3
2017-06-11T14:27:24.031Z,942.3
2017-06-11T14:28:31.996Z,942.3
2017-06-11T14:29:40.141Z,942.3
2017-06-11T14:30:48.174Z,942.2
2017-06-11T14:31:56.268Z,942.2
2017-06-11T14:33:04.484Z,942.2
2017-06-11T14:34:12.443Z,942.2
2017-06-11T14:35:20.537Z,942.2
2017-06-11T14:36:28.629Z,942.2